• Join FlightAware (Why Join?)
  • Login
  • US Flag 
11:30AM EDT


 

Airport Tracker/Info


-or-


 

Live Flight TrackerFlight Track Log ✈ EJA846 ✈ 02-May-2013 ✈ KHVN - KTEB

Flight Track Log - Related Links

Times and Time Zones

All times are in EDT time to prevent confusion due to time zone crossing. See the EJA846 flight status page for this flight to view local times or setup timezone preferences in your user account.

Time Position Orientation Groundspeed Altitude Reporting Facility
EDT Latitude Longitude Course Direction KTS MPH feet Rate Location/Type
03:00PM 41.2333 -72.8833 228° Southwest 181 208 1,500  Level New York TRACON
03:01PM 41.2000 -72.9333 228° Southwest 215 247 2,600 1,920 Climbing New York TRACON
03:02PM 41.2167 -73.0167 285° West 247 284 5,200 1,680 Climbing New York TRACON
03:03PM 41.2167 -73.1333 270° West 285 328 6,100 420 Climbing New York TRACON
03:04PM 41.2333 -73.2333 283° West 287 330 6,100  Level New York TRACON
03:05PM 41.2500 -73.3333 283° West 288 331 6,100  Level New York TRACON
03:06PM 41.2667 -73.4333 283° West 290 334 6,100  Level New York TRACON
03:07PM 41.2833 -73.5500 281° West 284 327 6,100  Level New York TRACON
03:08PM 41.2667 -73.6500 258° West 280 322 6,100 -840 Level New York TRACON
03:09PM 41.2667 -73.7500 270° West 269 310 4,500 -1,020 Descending New York TRACON
03:10PM 41.2500 -73.8500 258° West 257 296 4,100 -240 Descending New York TRACON
03:11PM 41.2500 -73.9500 270° West 270 311 4,100  Level New York TRACON
03:12PM 41.2333 -74.0333 255° West 271 312 4,100  Level New York TRACON
03:13PM 41.2333 -74.1333 270° West 270 311 4,100  Level New York TRACON
03:14PM 41.2000 -74.2167 242° Southwest 251 289 4,100 -300 Level New York TRACON
03:15PM 41.1500 -74.2833 225° Southwest 241 277 3,600 -480 Descending New York TRACON
03:16PM 41.1000 -74.3500 225° Southwest 241 277 3,100 -300 Descending New York TRACON
03:17PM 41.0667 -74.4000 229° Southwest 213 245 3,100  Level New York TRACON
03:18PM 41.0333 -74.3167 118° Southeast 200 230 3,100  Level New York TRACON
03:19PM 41.0333 -74.2500 90° East 196 226 3,100 -540 Level New York TRACON
03:20PM 41.0333 -74.1833 90° East 207 238 2,100 -540 Descending New York TRACON
03:21PM 41.0333 -74.1167 90° East 207 238 2,100  Level New York TRACON
03:22PM 41.0000 -74.0667 131° Southeast 185 213 2,100  Level New York TRACON
03:23PM 40.9667 -74.0500 159° South 160 184 2,100 -420 Level New York TRACON
03:24PM 40.9167 -74.0500 180° South 135 155 1,300 -720 Descending New York TRACON
03:25PM 40.8833 -74.0500 180° South 110 127 700 -600 Descending New York TRACON
03:27PM 40.8500 -74.0500 180° South  Level FlightAware Approximate
03:34PM 40.8501 -74.0608 180° South  Level Estimated
03:35PM 40.8501 -74.0608 180° South  Level Estimated